Latest Weather Observations for Wadeye (Port Keats)

IDD60801

Issued at 6:31 am CST Sunday 28 May 2017 (issued every 30 minutes, with the page automatically refreshed every 10 minutes)

About weather observations | Map of weather stations | Latest weather observations for NT | Other Formats
Station Details ID: 014948 Name: PORT KEATS AIRPORT Lat: -14.25 Lon: 129.53 Height: 28.0 m
Data from the previous 72 hours. | See also: Recent months at Wadeye (Port Keats)
Date/Time
CST
Temp
°C
App
Temp
°C
Dew
Point
°C
Rel
Hum
%
Delta-T
°C
Wind Press
QNH
hPa
Press
MSL
hPa
Rain since
9am
mm
Dir  Spd
km/h
Gust
km/h
Spd
kts
Gust
kts
28/06:30am 21.2 19.7 10.4 50 5.9 SE 9 13 5 7 1012.2 1012.0 0.0
28/06:00am 23.6 21.2 8.5 38 8.1 SE 11 15 6 8 1011.9 1011.7 0.0
28/05:30am 23.9 20.8 8.7 38 8.2 SE 15 19 8 10 1011.8 1011.6 0.0
28/05:00am 24.0 21.2 8.4 37 8.3 SE 13 15 7 8 1011.6 1011.4 0.0
28/04:30am 24.9 22.4 8.0 34 9.0 SE 11 15 6 8 1011.6 1011.4 0.0
28/04:00am 25.2 22.2 7.8 33 9.2 SE 13 17 7 9 1011.7 1011.5 0.0
28/03:30am 25.3 22.4 8.3 34 9.1 SE 13 17 7 9 1011.8 1011.6 0.0
28/03:00am 24.8 23.0 10.7 41 7.9 SE 11 15 6 8 1012.1 1011.9 0.0
28/02:30am 25.5 23.1 8.5 34 9.2 SE 11 15 6 8 1012.2 1012.0 0.0
28/02:00am 25.8 23.1 8.8 34 9.2 SE 13 17 7 9 1012.2 1012.0 0.0
28/01:30am 25.5 23.0 9.7 37 8.7 SE 13 19 7 10 1012.3 1012.1 0.0
28/01:00am 21.7 21.2 13.9 61 4.5 SE 9 11 5 6 1012.5 1012.3 0.0
28/12:30am 25.5 23.4 9.7 37 8.7 SE 11 15 6 8 1012.6 1012.4 0.0
28/12:00am 25.9 23.9 10.1 37 8.8 SE 11 15 6 8 1012.7 1012.5 0.0
 
Date/Time
CST
Temp
°C
App
Temp
°C
Dew
Point
°C
Rel
Hum
%
Delta-T
°C
Wind Press
QNH
hPa
Press
MSL
hPa
Rain since
9am
mm
Dir  Spd
km/h
Gust
km/h
Spd
kts
Gust
kts
27/11:30pm 26.0 24.1 11.7 41 8.2 SE 13 15 7 8 1012.7 1012.5 0.0
27/11:20pm 25.6 24.7 13.8 48 7.0 SE 11 13 6 7 1012.8 1012.6 0.0
27/11:00pm 20.6 20.5 16.0 75 2.8 SE 11 13 6 7 1012.9 1012.7 0.0
27/10:30pm 20.4 20.8 16.2 77 2.5 SE 9 13 5 7 1012.9 1012.7 0.0
27/10:00pm 20.8 21.5 16.2 75 2.8 SSE 7 9 4 5 1012.9 1012.7 0.0
27/09:30pm 20.8 21.9 17.0 79 2.3 SSE 7 7 4 4 1012.9 1012.7 0.0
27/09:00pm 21.2 22.9 17.2 78 2.5 SSE 4 6 2 3 1012.6 1012.4 0.0
27/08:30pm 21.9 23.2 17.1 74 2.9 SSW 6 7 3 4 1012.3 1012.1 0.0
27/08:00pm 22.6 23.9 17.1 71 3.4 SSW 6 7 3 4 1012.1 1011.9 0.0
27/07:30pm 23.7 26.1 17.0 66 4.1 CALM 0 0 0 0 1011.8 1011.6 0.0
27/07:00pm 24.5 25.8 16.2 60 5.1 NW 4 7 2 4 1011.4 1011.2 0.0
27/06:30pm 26.1 26.7 15.2 51 6.6 SSW 6 7 3 4 1011.0 1010.8 0.0
27/06:00pm 29.5 29.5 13.7 38 9.5 ESE 6 9 3 5 1010.5 1010.3 0.0
27/05:30pm 31.3 30.2 10.6 28 11.9 SE 7 9 4 5 1010.2 1010.0 0.0
27/05:00pm 32.0 30.4 10.1 26 12.5 ESE 9 11 5 6 1010.2 1010.0 0.0
27/04:30pm 32.6 30.8 9.4 24 13.2 E 9 13 5 7 1010.2 1010.0 0.0
27/04:00pm 33.0 29.4 8.5 22 13.7 E 17 24 9 13 1010.1 1009.9 0.0
27/03:30pm 33.1 30.1 7.9 21 14.0 E 13 22 7 12 1010.1 1009.9 0.0
27/03:00pm 33.3 28.7 8.0 21 14.1 ESE 22 28 12 15 1010.4 1010.2 0.0
27/02:30pm 33.2 30.0 8.6 22 13.8 ESE 15 24 8 13 1010.7 1010.5 0.0
27/02:00pm 32.8 29.7 8.9 23 13.5 ESE 15 26 8 14 1010.9 1010.7 0.0
27/01:30pm 31.9 28.7 10.0 26 12.5 ESE 17 24 9 13 1011.4 1011.2 0.0
27/01:00pm 31.7 28.2 11.0 28 12.0 E 20 35 11 19 1012.1 1011.9 0.0
27/12:30pm 31.3 27.9 11.1 29 11.7 ESE 20 35 11 19 1012.6 1012.4 0.0
27/12:00pm 30.9 28.9 12.8 33 10.7 ENE 15 24 8 13 1013.0 1012.8 0.0
27/11:30am 30.5 28.0 12.4 33 10.7 E 17 28 9 15 1013.5 1013.3 0.0
27/11:00am 29.5 26.4 11.5 33 10.4 E 19 30 10 16 1013.7 1013.5 0.0
27/10:30am 29.3 28.3 14.7 41 8.9 E 13 20 7 11 1014.0 1013.8 0.0
27/10:00am 28.4 28.3 16.0 47 7.7 E 11 17 6 9 1014.2 1014.0 0.0
27/09:30am 27.3 26.6 14.3 45 7.8 E 11 17 6 9 1014.2 1014.0 0.0
27/09:00am 26.2 24.5 13.7 46 7.4 E 15 22 8 12 1013.9 1013.7 0.0
27/08:30am 25.1 23.4 12.3 45 7.4 ESE 13 19 7 10 1013.6 1013.4 0.0
27/08:00am 24.0 22.5 12.0 47 6.8 ESE 11 17 6 9 1013.5 1013.3 0.0
27/07:30am 23.7 22.1 11.4 46 6.9 ESE 11 15 6 8 1013.2 1013.0 0.0
27/07:00am 23.7 22.0 11.1 45 7.0 ESE 11 13 6 7 1012.7 1012.5 0.0
27/06:30am 23.5 21.4 11.2 46 6.9 SE 13 15 7 8 1012.3 1012.1 0.0
27/06:00am 23.5 21.3 10.9 45 7.0 SE 13 15 7 8 1012.1 1011.9 0.0
27/05:30am 23.8 21.8 11.5 46 6.9 SE 13 17 7 9 1012.1 1011.9 0.0
27/05:00am 19.7 19.5 13.6 68 3.5 SE 7 9 4 5 1011.9 1011.7 0.0
27/04:30am 21.3 20.8 13.7 62 4.4 SE 9 13 5 7 1011.7 1011.5 0.0
27/04:00am 19.9 19.3 14.7 72 3.0 SSE 11 11 6 6 1011.6 1011.4 0.0
27/03:30am 19.9 19.6 14.5 71 3.1 SE 9 11 5 6 1011.9 1011.7 0.0
27/03:00am 20.9 21.0 13.8 64 4.1 SSE 6 7 3 4 1012.1 1011.9 0.0
27/02:30am 23.1 23.5 13.6 55 5.5 NE 4 6 2 3 1012.4 1012.2 0.0
27/02:00am 23.3 23.5 14.6 58 5.2 NNE 7 9 4 5 1012.6 1012.4 0.0
27/01:30am 23.0 23.4 15.3 62 4.6 NE 7 17 4 9 1012.5 1012.3 0.0
27/01:00am 22.7 22.7 14.3 59 4.9 SSE 7 9 4 5 1012.4 1012.2 0.0
27/12:30am 23.9 23.6 13.2 51 6.2 SSE 7 9 4 5 1012.4 1012.2 0.0
27/12:00am 24.0 23.6 14.1 54 5.8 SSE 9 11 5 6 1012.5 1012.3 0.0
 
Date/Time
CST
Temp
°C
App
Temp
°C
Dew
Point
°C
Rel
Hum
%
Delta-T
°C
Wind Press
QNH
hPa
Press
MSL
hPa
Rain since
9am
mm
Dir  Spd
km/h
Gust
km/h
Spd
kts
Gust
kts
26/11:30pm 24.3 24.1 13.5 51 6.3 SSE 7 9 4 5 1012.6 1012.4 0.0
26/11:00pm 24.2 24.6 16.2 61 4.9 SSE 9 11 5 6 1012.7 1012.5 0.0
26/10:30pm 23.5 24.1 16.8 66 4.1 SE 9 13 5 7 1012.7 1012.5 0.0
26/10:00pm 23.2 24.6 17.7 71 3.4 SSE 7 9 4 5 1012.6 1012.4 0.0
26/09:30pm 23.3 25.5 17.5 70 3.6 S 2 6 1 3 1012.6 1012.4 0.0
26/09:00pm 23.8 25.2 17.3 67 4.0 SSW 6 6 3 3 1012.4 1012.2 0.0
26/08:30pm 24.1 26.7 17.6 67 4.1 CALM 0 6 0 3 1012.3 1012.1 0.0
26/08:00pm 24.2 25.8 18.2 69 3.8 SSW 7 9 4 5 1012.1 1011.9 0.0
26/07:30pm 24.4 27.6 18.8 71 3.6 CALM 0 6 0 3 1011.8 1011.6 0.0
26/07:00pm 24.8 27.8 18.5 68 4.0 CALM 0 0 0 0 1011.5 1011.3 0.0
26/06:30pm 25.5 28.1 17.4 61 5.1 CALM 0 0 0 0 1011.4 1011.2 0.0
26/06:00pm 26.9 29.1 16.5 53 6.4 CALM 0 0 0 0 1011.1 1010.9 0.0
26/05:30pm 29.1 30.5 14.5 41 8.8 CALM 0 0 0 0 1010.7 1010.5 0.0
26/05:00pm 30.9 30.7 10.3 28 11.8 E 2 7 1 4 1010.4 1010.2 0.0
26/04:30pm 31.3 30.0 10.1 27 12.1 E 7 11 4 6 1010.3 1010.1 0.0
26/04:00pm 31.8 29.4 8.7 24 12.9 E 11 15 6 8 1010.4 1010.2 0.0
26/03:30pm 32.3 28.7 8.5 23 13.3 ENE 17 20 9 11 1010.4 1010.2 0.0
26/03:00pm 32.9 30.6 9.0 23 13.5 E 11 24 6 13 1010.4 1010.2 0.0
26/02:30pm 33.1 29.7 9.2 23 13.6 E 17 24 9 13 1010.7 1010.5 0.0
26/02:00pm 33.2 29.8 9.3 23 13.6 ENE 17 24 9 13 1011.0 1010.8 0.0
26/01:30pm 32.2 27.5 9.1 24 13.0 ESE 24 37 13 20 1011.6 1011.4 0.0
26/01:00pm 32.2 28.7 10.3 26 12.6 E 19 24 10 13 1012.0 1011.8 0.0
26/12:30pm 31.8 27.8 10.5 27 12.3 ESE 22 35 12 19 1012.4 1012.2 0.0
26/12:00pm 31.0 28.2 11.4 30 11.4 E 17 28 9 15 1012.9 1012.7 0.0
26/11:30am 31.0 28.0 12.4 32 11.0 E 20 30 11 16 1013.4 1013.2 0.0
26/11:00am 30.0 27.0 12.0 33 10.5 ESE 19 28 10 15 1013.7 1013.5 0.0
26/10:30am 29.4 26.9 12.3 34 10.0 E 17 28 9 15 1014.0 1013.8 0.0
26/10:00am 28.6 26.4 13.3 39 9.1 E 17 26 9 14 1014.1 1013.9 0.0
26/09:30am 27.7 25.5 14.3 43 8.0 E 19 28 10 15 1014.2 1014.0 0.0
26/09:00am 26.9 25.4 15.3 49 7.0 E 17 26 9 14 1014.0 1013.8 0.0
26/08:30am 25.9 25.1 15.0 51 6.6 ESE 13 20 7 11 1013.7 1013.5 0.0
26/08:00am 25.3 23.9 14.4 50 6.5 ESE 15 24 8 13 1013.5 1013.3 0.0
26/07:30am 24.7 23.6 14.2 52 6.2 SE 13 19 7 10 1013.1 1012.9 0.0
26/07:00am 24.7 23.1 13.9 51 6.4 SE 15 19 8 10 1012.7 1012.5 0.0
26/06:30am 24.8 23.4 13.4 49 6.7 SE 13 19 7 10 1012.2 1012.0 0.0
26/06:00am 25.2 23.4 13.4 48 6.9 SE 15 22 8 12 1011.9 1011.7 0.0
26/05:30am 25.2 23.7 13.1 47 7.1 SE 13 15 7 8 1011.5 1011.3 0.0
26/05:00am 25.8 24.4 13.3 46 7.3 SE 13 15 7 8 1011.4 1011.2 0.0
26/04:30am 25.5 24.2 13.7 48 7.0 SE 13 15 7 8 1011.3 1011.1 0.0
26/04:00am 24.7 24.5 15.6 57 5.5 SE 11 15 6 8 1011.5 1011.3 0.0
26/03:30am 21.2 21.6 16.2 73 3.0 SE 9 11 5 6 1011.3 1011.1 0.0
26/03:00am 21.6 22.0 16.3 72 3.2 SSE 9 11 5 6 1011.5 1011.3 0.0
26/02:30am 22.8 23.1 15.9 65 4.2 SE 9 13 5 7 1011.6 1011.4 0.0
26/02:00am 26.7 25.5 14.1 46 7.5 SE 13 17 7 9 1011.8 1011.6 0.0
26/01:30am 27.0 26.2 15.1 48 7.2 SE 13 17 7 9 1011.9 1011.7 0.0
26/01:00am 26.3 25.8 15.0 49 6.8 SE 11 15 6 8 1012.0 1011.8 0.0
26/12:30am 24.1 25.1 17.8 68 3.9 SE 9 13 5 7 1012.1 1011.9 0.0
26/12:00am 22.2 24.4 19.6 85 1.7 SSE 7 11 4 6 1012.3 1012.1 0.0
 
Date/Time
CST
Temp
°C
App
Temp
°C
Dew
Point
°C
Rel
Hum
%
Delta-T
°C
Wind Press
QNH
hPa
Press
MSL
hPa
Rain since
9am
mm
Dir  Spd
km/h
Gust
km/h
Spd
kts
Gust
kts
25/11:30pm 22.4 24.9 19.8 85 1.7 S 6 9 3 5 1012.5 1012.3 0.0
25/11:00pm 22.6 25.3 19.4 82 2.0 SSW 4 7 2 4 1012.6 1012.4 0.0
25/10:30pm 22.8 25.5 19.4 81 2.2 SSW 4 7 2 4 1012.7 1012.5 0.0
25/10:00pm 22.7 24.9 19.3 81 2.2 SSW 6 7 3 4 1012.8 1012.6 0.0
25/09:30pm 23.1 26.4 19.1 78 2.5 CALM 0 0 0 0 1012.7 1012.5 0.0
25/09:00pm 24.1 27.4 19.0 73 3.3 CALM 0 0 0 0 1012.5 1012.3 0.0
25/08:30pm 24.7 28.0 19.1 71 3.6 CALM 0 0 0 0 1012.2 1012.0 0.0
25/08:00pm 25.4 28.8 19.3 69 3.9 CALM 0 0 0 0 1011.9 1011.7 0.0
25/07:30pm 26.2 29.3 18.6 63 4.8 CALM 0 0 0 0 1011.6 1011.4 0.0
25/07:00pm 26.7 28.7 17.8 58 5.6 WSW 4 7 2 4 1011.3 1011.1 0.0
25/06:30pm 28.5 30.3 18.3 54 6.5 W 6 11 3 6 1011.1 1010.9 0.0
25/06:00pm 31.9 31.7 13.6 32 11.1 ENE 7 11 4 6 1010.7 1010.5 0.0
25/05:30pm 32.6 31.4 12.8 30 11.9 ENE 11 15 6 8 1010.5 1010.3 0.0
25/05:00pm 33.5 32.4 13.0 29 12.3 ESE 11 17 6 9 1010.2 1010.0 0.0
25/04:30pm 33.4 31.3 12.4 28 12.5 ENE 15 22 8 12 1010.1 1009.9 0.0
25/04:00pm 33.5 31.1 12.5 28 12.5 E 17 24 9 13 1010.0 1009.8 0.0
25/03:30pm 33.2 31.0 12.2 28 12.5 ENE 15 22 8 12 1009.8 1009.6 0.0
25/03:00pm 33.4 30.9 12.4 28 12.5 ESE 17 26 9 14 1010.2 1010.0 0.0
25/02:30pm 33.5 31.0 13.5 29 12.1 ESE 19 28 10 15 1010.5 1010.3 0.0
25/02:00pm 33.4 31.1 14.0 31 11.8 E 19 28 10 15 1011.1 1010.9 0.0
25/01:30pm 32.8 29.7 13.4 30 11.7 E 22 30 12 16 1011.5 1011.3 0.0
25/01:00pm 32.4 29.0 13.6 32 11.4 ESE 24 33 13 18 1012.1 1011.9 0.0
25/12:30pm 32.0 27.6 12.8 31 11.5 ESE 28 43 15 23 1012.3 1012.1 0.0
25/12:00pm 31.4 28.5 14.1 35 10.5 E 22 35 12 19 1012.8 1012.6 0.0
25/11:30am 30.6 27.5 13.4 35 10.3 ENE 22 32 12 17 1013.3 1013.1 0.0
25/11:00am 30.2 28.1 14.7 39 9.5 E 19 32 10 17 1013.8 1013.6 0.0
25/10:30am 29.4 27.3 14.8 41 8.9 E 19 26 10 14 1014.2 1014.0 0.0
25/10:00am 29.0 27.4 14.0 39 9.0 E 15 20 8 11 1014.4 1014.2 0.0
25/09:30am 28.2 27.3 14.8 44 8.1 E 13 19 7 10 1014.1 1013.9 0.0
25/09:00am 27.4 26.6 15.1 47 7.5 E 13 19 7 10 1014.0 1013.8 0.0
25/08:30am 26.6 26.1 15.0 49 7.0 ESE 11 15 6 8 1013.6 1013.4 0.0
25/08:00am 25.6 25.0 14.7 51 6.5 ESE 11 15 6 8 1013.2 1013.0 0.0
25/07:30am 24.8 24.5 14.3 52 6.2 ESE 9 13 5 7 1013.0 1012.8 0.0
25/07:00am 24.5 23.7 14.0 52 6.2 ESE 11 15 6 8 1012.8 1012.6 0.0

Other Formats:

Comma delimited format used in spreadsheet applications
http://www.bom.gov.au/fwo/IDD60801/IDD60801.95111.axf

JavaScript Object Notation format (JSON) in row-major order
http://www.bom.gov.au/fwo/IDD60801/IDD60801.95111.json